Kealia, Hawaii
Current Conditions -  °F | °C
As of 2:53 AM on Monday 20 Oct 2014 (Local Time) from PHLI Reporting Station
Scattered Clouds Scattered Clouds  
Wind Chill: 78°   Ceiling: Unl
Heat Index: 80°   Visibility: 10mi
Dew Point: 70°   Wind: 14mph
Humidity: 76%   Direction: 90°E
Pressure: 29.99"   Gusts: NA
Location:  22.09°N, 159.44°W
Report Text: PHLI 201253Z 09012KT 10SM FEW024 SCT090 SCT110 26/21 A2999 RMK AO2 SLP152 T02560211
Loading
Personal Weather Stations






























Interactive Weather Map
Tropical Storm Tracking
New forecast layout! Learn more

10-Day Weather Forecast

Advertisements
Track Severe Weather on mobile